sensor_id;sensor_type;location;lat;lon;timestamp;P1;durP1;ratioP1;P2;durP2;ratioP2
13291;SDS011;6714;53.056;8.690;2024-01-06T00:01:10;6.00;;;4.67;;
13291;SDS011;6714;53.056;8.690;2024-01-06T00:03:53;4.83;;;4.40;;
13291;SDS011;6714;53.056;8.690;2024-01-06T00:06:35;3.90;;;3.60;;
13291;SDS011;6714;53.056;8.690;2024-01-06T00:09:18;4.47;;;4.07;;
13291;SDS011;6714;53.056;8.690;2024-01-06T00:12:00;4.37;;;3.87;;
13291;SDS011;6714;53.056;8.690;2024-01-06T00:14:45;4.87;;;4.37;;
13291;SDS011;6714;53.056;8.690;2024-01-06T00:17:32;5.13;;;4.63;;
13291;SDS011;6714;53.056;8.690;2024-01-06T00:20:15;5.87;;;4.33;;
13291;SDS011;6714;53.056;8.690;2024-01-06T00:22:57;4.20;;;3.80;;
13291;SDS011;6714;53.056;8.690;2024-01-06T00:25:40;4.53;;;4.10;;
13291;SDS011;6714;53.056;8.690;2024-01-06T00:28:22;4.87;;;4.47;;
13291;SDS011;6714;53.056;8.690;2024-01-06T00:31:06;5.53;;;5.03;;
13291;SDS011;6714;53.056;8.690;2024-01-06T00:33:48;5.77;;;5.17;;
13291;SDS011;6714;53.056;8.690;2024-01-06T00:36:31;5.43;;;4.93;;
13291;SDS011;6714;53.056;8.690;2024-01-06T00:39:13;5.47;;;4.97;;
13291;SDS011;6714;53.056;8.690;2024-01-06T00:41:56;5.50;;;5.00;;
13291;SDS011;6714;53.056;8.690;2024-01-06T00:44:38;4.63;;;4.23;;
13291;SDS011;6714;53.056;8.690;2024-01-06T00:47:22;4.63;;;4.23;;
13291;SDS011;6714;53.056;8.690;2024-01-06T00:50:08;4.10;;;3.70;;
13291;SDS011;6714;53.056;8.690;2024-01-06T00:52:50;4.37;;;3.97;;
13291;SDS011;6714;53.056;8.690;2024-01-06T00:55:33;4.53;;;4.13;;
13291;SDS011;6714;53.056;8.690;2024-01-06T00:58:15;4.27;;;3.87;;
13291;SDS011;6714;53.056;8.690;2024-01-06T01:00:58;4.83;;;4.43;;
13291;SDS011;6714;53.056;8.690;2024-01-06T01:03:41;6.07;;;5.20;;
13291;SDS011;6714;53.056;8.690;2024-01-06T01:06:24;4.83;;;4.40;;
13291;SDS011;6714;53.056;8.690;2024-01-06T01:09:06;3.83;;;3.53;;
13291;SDS011;6714;53.056;8.690;2024-01-06T01:11:50;4.63;;;4.23;;
13291;SDS011;6714;53.056;8.690;2024-01-06T01:14:33;4.83;;;4.37;;
13291;SDS011;6714;53.056;8.690;2024-01-06T01:17:16;5.53;;;4.93;;
13291;SDS011;6714;53.056;8.690;2024-01-06T01:20:00;4.80;;;4.40;;
13291;SDS011;6714;53.056;8.690;2024-01-06T01:22:42;4.70;;;4.30;;
13291;SDS011;6714;53.056;8.690;2024-01-06T01:25:25;5.23;;;4.27;;
13291;SDS011;6714;53.056;8.690;2024-01-06T01:28:08;4.53;;;4.13;;
13291;SDS011;6714;53.056;8.690;2024-01-06T01:30:50;3.67;;;3.37;;
13291;SDS011;6714;53.056;8.690;2024-01-06T01:33:33;4.30;;;3.90;;
13291;SDS011;6714;53.056;8.690;2024-01-06T01:36:16;4.93;;;4.50;;
13291;SDS011;6714;53.056;8.690;2024-01-06T01:39:02;3.77;;;3.47;;
13291;SDS011;6714;53.056;8.690;2024-01-06T01:41:45;4.40;;;4.00;;
13291;SDS011;6714;53.056;8.690;2024-01-06T01:44:27;3.00;;;2.80;;
13291;SDS011;6714;53.056;8.690;2024-01-06T01:47:09;3.10;;;2.90;;
13291;SDS011;6714;53.056;8.690;2024-01-06T01:49:52;3.50;;;3.20;;
13291;SDS011;6714;53.056;8.690;2024-01-06T01:52:39;4.20;;;3.80;;
13291;SDS011;6714;53.056;8.690;2024-01-06T01:55:21;3.57;;;3.27;;
13291;SDS011;6714;53.056;8.690;2024-01-06T01:58:04;3.70;;;3.40;;
13291;SDS011;6714;53.056;8.690;2024-01-06T02:00:47;3.20;;;3.00;;
13291;SDS011;6714;53.056;8.690;2024-01-06T02:03:31;3.97;;;3.57;;
13291;SDS011;6714;53.056;8.690;2024-01-06T02:06:14;4.10;;;3.50;;
13291;SDS011;6714;53.056;8.690;2024-01-06T02:08:59;4.07;;;3.77;;
13291;SDS011;6714;53.056;8.690;2024-01-06T02:11:42;4.47;;;4.07;;
13291;SDS011;6714;53.056;8.690;2024-01-06T02:14:24;4.80;;;4.33;;
13291;SDS011;6714;53.056;8.690;2024-01-06T02:17:07;3.83;;;3.53;;
13291;SDS011;6714;53.056;8.690;2024-01-06T02:19:49;4.23;;;3.83;;
13291;SDS011;6714;53.056;8.690;2024-01-06T02:22:34;4.77;;;4.27;;
13291;SDS011;6714;53.056;8.690;2024-01-06T02:25:18;5.13;;;4.73;;
13291;SDS011;6714;53.056;8.690;2024-01-06T02:28:01;5.00;;;4.50;;
13291;SDS011;6714;53.056;8.690;2024-01-06T02:30:44;5.33;;;4.83;;
13291;SDS011;6714;53.056;8.690;2024-01-06T02:33:27;5.17;;;4.67;;
13291;SDS011;6714;53.056;8.690;2024-01-06T02:36:10;4.10;;;3.70;;
13291;SDS011;6714;53.056;8.690;2024-01-06T02:38:53;4.67;;;4.27;;
13291;SDS011;6714;53.056;8.690;2024-01-06T02:41:36;5.13;;;4.53;;
13291;SDS011;6714;53.056;8.690;2024-01-06T02:44:19;3.70;;;3.40;;
13291;SDS011;6714;53.056;8.690;2024-01-06T02:47:02;4.23;;;3.93;;
13291;SDS011;6714;53.056;8.690;2024-01-06T02:49:45;3.27;;;3.07;;
13291;SDS011;6714;53.056;8.690;2024-01-06T02:52:28;3.93;;;3.63;;
13291;SDS011;6714;53.056;8.690;2024-01-06T02:55:12;4.13;;;3.73;;
13291;SDS011;6714;53.056;8.690;2024-01-06T02:57:54;3.63;;;3.33;;
13291;SDS011;6714;53.056;8.690;2024-01-06T03:00:36;3.60;;;3.30;;
13291;SDS011;6714;53.056;8.690;2024-01-06T03:03:19;4.90;;;4.50;;
13291;SDS011;6714;53.056;8.690;2024-01-06T03:06:03;8.13;;;4.90;;
13291;SDS011;6714;53.056;8.690;2024-01-06T03:08:45;5.20;;;4.70;;
13291;SDS011;6714;53.056;8.690;2024-01-06T03:11:30;5.70;;;5.20;;
13291;SDS011;6714;53.056;8.690;2024-01-06T03:14:12;4.73;;;4.23;;
13291;SDS011;6714;53.056;8.690;2024-01-06T03:16:55;5.77;;;4.97;;
13291;SDS011;6714;53.056;8.690;2024-01-06T03:19:38;6.23;;;5.63;;
13291;SDS011;6714;53.056;8.690;2024-01-06T03:22:21;3.57;;;3.27;;
13291;SDS011;6714;53.056;8.690;2024-01-06T03:25:04;5.07;;;4.57;;
13291;SDS011;6714;53.056;8.690;2024-01-06T03:27:49;3.90;;;3.60;;
13291;SDS011;6714;53.056;8.690;2024-01-06T03:30:31;4.20;;;3.80;;
13291;SDS011;6714;53.056;8.690;2024-01-06T03:33:14;6.50;;;5.70;;
13291;SDS011;6714;53.056;8.690;2024-01-06T03:35:56;6.47;;;5.77;;
13291;SDS011;6714;53.056;8.690;2024-01-06T03:38:39;4.73;;;4.33;;
13291;SDS011;6714;53.056;8.690;2024-01-06T03:41:21;6.37;;;5.50;;
13291;SDS011;6714;53.056;8.690;2024-01-06T03:44:05;5.53;;;5.00;;
13291;SDS011;6714;53.056;8.690;2024-01-06T03:46:48;5.40;;;4.73;;
13291;SDS011;6714;53.056;8.690;2024-01-06T03:49:30;5.73;;;4.93;;
13291;SDS011;6714;53.056;8.690;2024-01-06T03:52:12;4.07;;;3.77;;
13291;SDS011;6714;53.056;8.690;2024-01-06T03:54:55;6.30;;;5.70;;
13291;SDS011;6714;53.056;8.690;2024-01-06T03:57:37;4.40;;;4.00;;
13291;SDS011;6714;53.056;8.690;2024-01-06T04:00:24;4.40;;;4.00;;
13291;SDS011;6714;53.056;8.690;2024-01-06T04:03:07;4.30;;;3.90;;
13291;SDS011;6714;53.056;8.690;2024-01-06T04:05:49;6.23;;;5.03;;
13291;SDS011;6714;53.056;8.690;2024-01-06T04:08:31;4.87;;;4.37;;
13291;SDS011;6714;53.056;8.690;2024-01-06T04:11:14;5.30;;;4.80;;
13291;SDS011;6714;53.056;8.690;2024-01-06T04:13:56;4.60;;;3.90;;
13291;SDS011;6714;53.056;8.690;2024-01-06T04:16:40;5.13;;;4.50;;
13291;SDS011;6714;53.056;8.690;2024-01-06T04:19:23;5.20;;;4.70;;
13291;SDS011;6714;53.056;8.690;2024-01-06T04:22:05;5.07;;;4.53;;
13291;SDS011;6714;53.056;8.690;2024-01-06T04:24:47;4.67;;;4.27;;
13291;SDS011;6714;53.056;8.690;2024-01-06T04:27:30;3.70;;;3.40;;
13291;SDS011;6714;53.056;8.690;2024-01-06T04:30:14;3.20;;;3.00;;
13291;SDS011;6714;53.056;8.690;2024-01-06T04:32:58;5.07;;;4.63;;
13291;SDS011;6714;53.056;8.690;2024-01-06T04:35:40;3.23;;;2.93;;
13291;SDS011;6714;53.056;8.690;2024-01-06T04:38:23;3.83;;;3.43;;
13291;SDS011;6714;53.056;8.690;2024-01-06T04:41:05;3.90;;;3.50;;
13291;SDS011;6714;53.056;8.690;2024-01-06T04:43:47;2.73;;;2.53;;
13291;SDS011;6714;53.056;8.690;2024-01-06T04:46:30;5.17;;;4.67;;
13291;SDS011;6714;53.056;8.690;2024-01-06T04:49:14;4.73;;;4.00;;
13291;SDS011;6714;53.056;8.690;2024-01-06T04:51:57;4.73;;;4.33;;
13291;SDS011;6714;53.056;8.690;2024-01-06T04:54:39;4.67;;;4.17;;
13291;SDS011;6714;53.056;8.690;2024-01-06T04:57:21;4.30;;;3.90;;
13291;SDS011;6714;53.056;8.690;2024-01-06T05:00:04;3.90;;;3.53;;
13291;SDS011;6714;53.056;8.690;2024-01-06T05:02:46;3.70;;;3.40;;
13291;SDS011;6714;53.056;8.690;2024-01-06T05:05:31;3.60;;;3.30;;
13291;SDS011;6714;53.056;8.690;2024-01-06T05:08:13;4.27;;;3.87;;
13291;SDS011;6714;53.056;8.690;2024-01-06T05:10:57;3.43;;;3.13;;
13291;SDS011;6714;53.056;8.690;2024-01-06T05:13:40;4.07;;;3.77;;
13291;SDS011;6714;53.056;8.690;2024-01-06T05:16:22;3.47;;;3.17;;
13291;SDS011;6714;53.056;8.690;2024-01-06T05:19:05;4.13;;;3.80;;
13291;SDS011;6714;53.056;8.690;2024-01-06T05:21:49;4.07;;;3.70;;
13291;SDS011;6714;53.056;8.690;2024-01-06T05:24:32;3.77;;;3.47;;
13291;SDS011;6714;53.056;8.690;2024-01-06T05:27:14;4.23;;;3.93;;
13291;SDS011;6714;53.056;8.690;2024-01-06T05:29:56;3.97;;;3.67;;
13291;SDS011;6714;53.056;8.690;2024-01-06T05:32:39;4.43;;;4.03;;
13291;SDS011;6714;53.056;8.690;2024-01-06T05:35:22;4.27;;;3.87;;
13291;SDS011;6714;53.056;8.690;2024-01-06T05:38:06;3.80;;;3.50;;
13291;SDS011;6714;53.056;8.690;2024-01-06T05:40:48;4.73;;;4.33;;
13291;SDS011;6714;53.056;8.690;2024-01-06T05:43:30;4.67;;;4.20;;
13291;SDS011;6714;53.056;8.690;2024-01-06T05:46:19;4.90;;;4.50;;
13291;SDS011;6714;53.056;8.690;2024-01-06T05:49:02;5.43;;;4.87;;
13291;SDS011;6714;53.056;8.690;2024-01-06T05:51:45;4.70;;;4.10;;
13291;SDS011;6714;53.056;8.690;2024-01-06T05:54:29;5.07;;;4.57;;
13291;SDS011;6714;53.056;8.690;2024-01-06T05:57:11;3.83;;;3.53;;
13291;SDS011;6714;53.056;8.690;2024-01-06T05:59:54;3.40;;;3.13;;
13291;SDS011;6714;53.056;8.690;2024-01-06T06:02:36;4.67;;;4.20;;
13291;SDS011;6714;53.056;8.690;2024-01-06T06:05:19;5.07;;;4.57;;
13291;SDS011;6714;53.056;8.690;2024-01-06T06:08:02;5.17;;;4.67;;
13291;SDS011;6714;53.056;8.690;2024-01-06T06:10:45;5.77;;;4.93;;
13291;SDS011;6714;53.056;8.690;2024-01-06T06:13:41;5.27;;;4.77;;
13291;SDS011;6714;53.056;8.690;2024-01-06T06:16:23;5.57;;;4.80;;
13291;SDS011;6714;53.056;8.690;2024-01-06T06:19:06;3.53;;;3.13;;
13291;SDS011;6714;53.056;8.690;2024-01-06T06:21:49;4.03;;;3.60;;
13291;SDS011;6714;53.056;8.690;2024-01-06T06:24:31;3.50;;;3.20;;
13291;SDS011;6714;53.056;8.690;2024-01-06T06:27:15;5.73;;;5.13;;
13291;SDS011;6714;53.056;8.690;2024-01-06T06:29:58;6.03;;;5.23;;
13291;SDS011;6714;53.056;8.690;2024-01-06T06:32:40;4.80;;;4.10;;
13291;SDS011;6714;53.056;8.690;2024-01-06T06:35:23;5.07;;;4.43;;
13291;SDS011;6714;53.056;8.690;2024-01-06T06:38:06;6.33;;;5.63;;
13291;SDS011;6714;53.056;8.690;2024-01-06T06:40:49;6.90;;;5.30;;
13291;SDS011;6714;53.056;8.690;2024-01-06T06:43:33;6.20;;;4.87;;
13291;SDS011;6714;53.056;8.690;2024-01-06T06:46:16;7.30;;;6.33;;
13291;SDS011;6714;53.056;8.690;2024-01-06T06:48:59;6.00;;;5.27;;
13291;SDS011;6714;53.056;8.690;2024-01-06T06:51:42;6.33;;;5.13;;
13291;SDS011;6714;53.056;8.690;2024-01-06T06:54:27;7.63;;;6.83;;
13291;SDS011;6714;53.056;8.690;2024-01-06T06:57:09;3.03;;;2.73;;
13291;SDS011;6714;53.056;8.690;2024-01-06T06:59:53;4.93;;;4.20;;
13291;SDS011;6714;53.056;8.690;2024-01-06T07:02:36;6.47;;;5.83;;
13291;SDS011;6714;53.056;8.690;2024-01-06T07:05:18;9.13;;;7.33;;
13291;SDS011;6714;53.056;8.690;2024-01-06T07:08:01;8.93;;;7.90;;
13291;SDS011;6714;53.056;8.690;2024-01-06T07:10:45;6.97;;;5.90;;
13291;SDS011;6714;53.056;8.690;2024-01-06T07:13:28;8.87;;;7.57;;
13291;SDS011;6714;53.056;8.690;2024-01-06T07:16:12;5.60;;;5.00;;
13291;SDS011;6714;53.056;8.690;2024-01-06T07:18:54;5.60;;;5.10;;
13291;SDS011;6714;53.056;8.690;2024-01-06T07:21:37;6.50;;;5.90;;
13291;SDS011;6714;53.056;8.690;2024-01-06T07:24:19;7.73;;;6.27;;
13291;SDS011;6714;53.056;8.690;2024-01-06T07:27:01;8.83;;;7.93;;
13291;SDS011;6714;53.056;8.690;2024-01-06T07:29:44;9.13;;;8.00;;
13291;SDS011;6714;53.056;8.690;2024-01-06T07:32:28;7.87;;;7.07;;
13291;SDS011;6714;53.056;8.690;2024-01-06T07:35:11;5.97;;;5.47;;
13291;SDS011;6714;53.056;8.690;2024-01-06T07:37:54;6.07;;;5.50;;
13291;SDS011;6714;53.056;8.690;2024-01-06T07:40:36;5.23;;;4.73;;
13291;SDS011;6714;53.056;8.690;2024-01-06T07:43:19;6.27;;;5.67;;
13291;SDS011;6714;53.056;8.690;2024-01-06T07:46:01;5.57;;;4.97;;
13291;SDS011;6714;53.056;8.690;2024-01-06T07:48:46;8.63;;;7.10;;
13291;SDS011;6714;53.056;8.690;2024-01-06T07:51:29;6.57;;;5.90;;
13291;SDS011;6714;53.056;8.690;2024-01-06T07:54:11;8.73;;;7.63;;
13291;SDS011;6714;53.056;8.690;2024-01-06T07:56:54;5.13;;;4.63;;
13291;SDS011;6714;53.056;8.690;2024-01-06T07:59:36;10.57;;;8.70;;
13291;SDS011;6714;53.056;8.690;2024-01-06T08:02:19;8.27;;;6.93;;
13291;SDS011;6714;53.056;8.690;2024-01-06T08:05:03;8.67;;;7.27;;
13291;SDS011;6714;53.056;8.690;2024-01-06T08:07:47;8.93;;;8.00;;
13291;SDS011;6714;53.056;8.690;2024-01-06T08:10:29;4.83;;;4.43;;
13291;SDS011;6714;53.056;8.690;2024-01-06T08:13:12;9.27;;;6.57;;
13291;SDS011;6714;53.056;8.690;2024-01-06T08:15:54;7.87;;;6.07;;
13291;SDS011;6714;53.056;8.690;2024-01-06T08:18:37;7.87;;;7.03;;
13291;SDS011;6714;53.056;8.690;2024-01-06T08:21:21;9.53;;;7.43;;
13291;SDS011;6714;53.056;8.690;2024-01-06T08:24:03;11.63;;;7.90;;
13291;SDS011;6714;53.056;8.690;2024-01-06T08:26:46;8.73;;;7.17;;
13291;SDS011;6714;53.056;8.690;2024-01-06T08:29:29;9.07;;;7.80;;
13291;SDS011;6714;53.056;8.690;2024-01-06T08:32:11;10.67;;;8.23;;
13291;SDS011;6714;53.056;8.690;2024-01-06T08:34:55;10.47;;;8.27;;
13291;SDS011;6714;53.056;8.690;2024-01-06T08:37:39;9.70;;;7.67;;
13291;SDS011;6714;53.056;8.690;2024-01-06T08:40:21;8.50;;;7.53;;
13291;SDS011;6714;53.056;8.690;2024-01-06T08:43:04;12.00;;;9.30;;
13291;SDS011;6714;53.056;8.690;2024-01-06T08:45:46;7.50;;;6.23;;
13291;SDS011;6714;53.056;8.690;2024-01-06T08:48:30;11.33;;;8.40;;
13291;SDS011;6714;53.056;8.690;2024-01-06T08:51:13;8.23;;;7.10;;
13291;SDS011;6714;53.056;8.690;2024-01-06T08:53:57;10.73;;;9.23;;
13291;SDS011;6714;53.056;8.690;2024-01-06T08:56:40;11.17;;;9.23;;
13291;SDS011;6714;53.056;8.690;2024-01-06T08:59:22;15.67;;;11.83;;
13291;SDS011;6714;53.056;8.690;2024-01-06T09:02:05;11.33;;;9.57;;
13291;SDS011;6714;53.056;8.690;2024-01-06T09:04:48;8.40;;;7.30;;
13291;SDS011;6714;53.056;8.690;2024-01-06T09:07:31;11.33;;;9.63;;
13291;SDS011;6714;53.056;8.690;2024-01-06T09:10:16;11.83;;;9.77;;
13291;SDS011;6714;53.056;8.690;2024-01-06T09:12:58;11.70;;;8.53;;
13291;SDS011;6714;53.056;8.690;2024-01-06T09:15:41;13.87;;;10.87;;
13291;SDS011;6714;53.056;8.690;2024-01-06T09:18:25;10.67;;;9.20;;
13291;SDS011;6714;53.056;8.690;2024-01-06T09:21:07;14.40;;;11.23;;
13291;SDS011;6714;53.056;8.690;2024-01-06T09:23:50;11.23;;;9.13;;
13291;SDS011;6714;53.056;8.690;2024-01-06T09:26:34;10.00;;;8.40;;
13291;SDS011;6714;53.056;8.690;2024-01-06T09:29:16;12.63;;;10.13;;
13291;SDS011;6714;53.056;8.690;2024-01-06T09:31:59;15.30;;;10.17;;
13291;SDS011;6714;53.056;8.690;2024-01-06T09:34:42;11.97;;;10.23;;
13291;SDS011;6714;53.056;8.690;2024-01-06T09:37:24;9.73;;;8.00;;
13291;SDS011;6714;53.056;8.690;2024-01-06T09:40:08;13.67;;;11.67;;
13291;SDS011;6714;53.056;8.690;2024-01-06T09:42:55;14.00;;;12.10;;
13291;SDS011;6714;53.056;8.690;2024-01-06T09:45:37;7.43;;;6.57;;
13291;SDS011;6714;53.056;8.690;2024-01-06T09:48:20;10.93;;;9.23;;
13291;SDS011;6714;53.056;8.690;2024-01-06T09:51:04;11.43;;;9.33;;
13291;SDS011;6714;53.056;8.690;2024-01-06T09:53:48;10.47;;;8.30;;
13291;SDS011;6714;53.056;8.690;2024-01-06T09:56:31;14.23;;;11.43;;
13291;SDS011;6714;53.056;8.690;2024-01-06T09:59:15;8.87;;;7.43;;
13291;SDS011;6714;53.056;8.690;2024-01-06T10:01:59;14.07;;;10.20;;
13291;SDS011;6714;53.056;8.690;2024-01-06T10:04:41;9.90;;;7.83;;
13291;SDS011;6714;53.056;8.690;2024-01-06T10:07:25;13.33;;;10.73;;
13291;SDS011;6714;53.056;8.690;2024-01-06T10:10:07;12.63;;;10.40;;
13291;SDS011;6714;53.056;8.690;2024-01-06T10:12:52;10.53;;;9.10;;
13291;SDS011;6714;53.056;8.690;2024-01-06T10:15:38;14.50;;;11.23;;
13291;SDS011;6714;53.056;8.690;2024-01-06T10:18:21;11.07;;;9.10;;
13291;SDS011;6714;53.056;8.690;2024-01-06T10:21:04;9.97;;;8.60;;
13291;SDS011;6714;53.056;8.690;2024-01-06T10:23:47;11.70;;;9.70;;
13291;SDS011;6714;53.056;8.690;2024-01-06T10:26:32;12.20;;;10.33;;
13291;SDS011;6714;53.056;8.690;2024-01-06T10:29:15;10.97;;;8.43;;
13291;SDS011;6714;53.056;8.690;2024-01-06T10:31:59;12.40;;;10.83;;
13291;SDS011;6714;53.056;8.690;2024-01-06T10:34:42;12.50;;;10.57;;
13291;SDS011;6714;53.056;8.690;2024-01-06T10:37:27;11.43;;;9.07;;
13291;SDS011;6714;53.056;8.690;2024-01-06T10:40:10;11.47;;;9.10;;
13291;SDS011;6714;53.056;8.690;2024-01-06T10:42:53;17.27;;;12.97;;
13291;SDS011;6714;53.056;8.690;2024-01-06T10:45:37;13.03;;;10.80;;
13291;SDS011;6714;53.056;8.690;2024-01-06T10:48:22;11.27;;;9.13;;
13291;SDS011;6714;53.056;8.690;2024-01-06T10:51:06;15.57;;;13.50;;
13291;SDS011;6714;53.056;8.690;2024-01-06T10:53:48;12.63;;;9.80;;
13291;SDS011;6714;53.056;8.690;2024-01-06T10:56:33;14.57;;;11.97;;
13291;SDS011;6714;53.056;8.690;2024-01-06T10:59:18;14.10;;;11.83;;
13291;SDS011;6714;53.056;8.690;2024-01-06T11:02:03;10.20;;;9.10;;
13291;SDS011;6714;53.056;8.690;2024-01-06T11:04:48;15.73;;;12.17;;
13291;SDS011;6714;53.056;8.690;2024-01-06T11:07:31;13.00;;;9.73;;
13291;SDS011;6714;53.056;8.690;2024-01-06T11:10:15;14.20;;;11.50;;
13291;SDS011;6714;53.056;8.690;2024-01-06T11:13:10;12.40;;;10.67;;
13291;SDS011;6714;53.056;8.690;2024-01-06T11:15:53;13.27;;;10.87;;
13291;SDS011;6714;53.056;8.690;2024-01-06T11:18:36;8.53;;;7.50;;
13291;SDS011;6714;53.056;8.690;2024-01-06T11:21:20;13.07;;;10.13;;
13291;SDS011;6714;53.056;8.690;2024-01-06T11:24:14;15.27;;;11.87;;
13291;SDS011;6714;53.056;8.690;2024-01-06T11:27:19;13.90;;;10.07;;
13291;SDS011;6714;53.056;8.690;2024-01-06T11:30:03;13.80;;;10.70;;
13291;SDS011;6714;53.056;8.690;2024-01-06T11:32:45;16.23;;;12.40;;
13291;SDS011;6714;53.056;8.690;2024-01-06T11:35:28;16.63;;;12.67;;
13291;SDS011;6714;53.056;8.690;2024-01-06T11:38:14;17.00;;;12.83;;
13291;SDS011;6714;53.056;8.690;2024-01-06T11:40:58;12.67;;;10.40;;
13291;SDS011;6714;53.056;8.690;2024-01-06T11:43:41;17.77;;;13.70;;
13291;SDS011;6714;53.056;8.690;2024-01-06T11:46:25;17.53;;;12.57;;
13291;SDS011;6714;53.056;8.690;2024-01-06T11:49:08;17.23;;;12.23;;
13291;SDS011;6714;53.056;8.690;2024-01-06T11:51:52;11.27;;;8.93;;
13291;SDS011;6714;53.056;8.690;2024-01-06T11:54:36;14.63;;;10.37;;
13291;SDS011;6714;53.056;8.690;2024-01-06T11:57:19;15.23;;;11.97;;
13291;SDS011;6714;53.056;8.690;2024-01-06T12:00:01;21.33;;;15.30;;
13291;SDS011;6714;53.056;8.690;2024-01-06T12:02:45;17.73;;;12.13;;
13291;SDS011;6714;53.056;8.690;2024-01-06T12:05:28;14.00;;;10.77;;
13291;SDS011;6714;53.056;8.690;2024-01-06T12:08:10;16.10;;;11.70;;
13291;SDS011;6714;53.056;8.690;2024-01-06T12:11:02;18.47;;;13.03;;
13291;SDS011;6714;53.056;8.690;2024-01-06T12:13:45;17.47;;;12.93;;
13291;SDS011;6714;53.056;8.690;2024-01-06T12:16:28;16.23;;;12.03;;
13291;SDS011;6714;53.056;8.690;2024-01-06T12:19:12;23.27;;;16.40;;
13291;SDS011;6714;53.056;8.690;2024-01-06T12:21:55;19.03;;;13.47;;
13291;SDS011;6714;53.056;8.690;2024-01-06T12:24:38;18.27;;;13.73;;
13291;SDS011;6714;53.056;8.690;2024-01-06T12:27:24;20.83;;;14.63;;
13291;SDS011;6714;53.056;8.690;2024-01-06T12:30:10;19.37;;;14.07;;
13291;SDS011;6714;53.056;8.690;2024-01-06T12:32:55;20.13;;;14.27;;
13291;SDS011;6714;53.056;8.690;2024-01-06T12:35:38;15.50;;;11.40;;
13291;SDS011;6714;53.056;8.690;2024-01-06T12:38:20;21.67;;;15.50;;
13291;SDS011;6714;53.056;8.690;2024-01-06T12:41:03;17.10;;;13.27;;
13291;SDS011;6714;53.056;8.690;2024-01-06T12:43:47;21.63;;;15.73;;
13291;SDS011;6714;53.056;8.690;2024-01-06T12:46:29;18.00;;;12.37;;
13291;SDS011;6714;53.056;8.690;2024-01-06T12:49:12;19.30;;;14.90;;
13291;SDS011;6714;53.056;8.690;2024-01-06T12:51:55;22.77;;;16.00;;
13291;SDS011;6714;53.056;8.690;2024-01-06T12:54:38;20.10;;;14.43;;
13291;SDS011;6714;53.056;8.690;2024-01-06T12:57:21;14.20;;;11.00;;
13291;SDS011;6714;53.056;8.690;2024-01-06T13:00:07;18.27;;;13.67;;
13291;SDS011;6714;53.056;8.690;2024-01-06T13:02:52;21.93;;;15.23;;
13291;SDS011;6714;53.056;8.690;2024-01-06T13:05:34;18.40;;;12.83;;
13291;SDS011;6714;53.056;8.690;2024-01-06T13:08:18;16.67;;;12.97;;
13291;SDS011;6714;53.056;8.690;2024-01-06T13:11:00;20.20;;;15.07;;
13291;SDS011;6714;53.056;8.690;2024-01-06T13:13:43;16.30;;;12.27;;
13291;SDS011;6714;53.056;8.690;2024-01-06T13:16:27;13.77;;;9.40;;
13291;SDS011;6714;53.056;8.690;2024-01-06T13:19:11;17.07;;;12.90;;
13291;SDS011;6714;53.056;8.690;2024-01-06T13:21:54;16.40;;;12.50;;
13291;SDS011;6714;53.056;8.690;2024-01-06T13:24:36;17.87;;;13.10;;
13291;SDS011;6714;53.056;8.690;2024-01-06T13:27:20;20.40;;;14.17;;
13291;SDS011;6714;53.056;8.690;2024-01-06T13:30:04;16.60;;;12.80;;
13291;SDS011;6714;53.056;8.690;2024-01-06T13:32:49;16.03;;;12.50;;
13291;SDS011;6714;53.056;8.690;2024-01-06T13:35:32;17.10;;;12.80;;
13291;SDS011;6714;53.056;8.690;2024-01-06T13:38:16;13.03;;;9.70;;
13291;SDS011;6714;53.056;8.690;2024-01-06T13:40:59;15.50;;;11.90;;
13291;SDS011;6714;53.056;8.690;2024-01-06T13:43:43;17.50;;;12.30;;
13291;SDS011;6714;53.056;8.690;2024-01-06T13:46:25;17.77;;;13.70;;
13291;SDS011;6714;53.056;8.690;2024-01-06T13:49:10;15.27;;;10.50;;
13291;SDS011;6714;53.056;8.690;2024-01-06T13:51:52;13.30;;;10.50;;
13291;SDS011;6714;53.056;8.690;2024-01-06T13:54:35;19.17;;;14.03;;
13291;SDS011;6714;53.056;8.690;2024-01-06T13:57:17;19.97;;;14.13;;
13291;SDS011;6714;53.056;8.690;2024-01-06T14:00:02;13.93;;;10.53;;
13291;SDS011;6714;53.056;8.690;2024-01-06T14:02:45;15.90;;;12.77;;
13291;SDS011;6714;53.056;8.690;2024-01-06T14:05:30;18.60;;;12.63;;
13291;SDS011;6714;53.056;8.690;2024-01-06T14:08:13;14.40;;;10.43;;
13291;SDS011;6714;53.056;8.690;2024-01-06T14:10:55;19.50;;;14.07;;
13291;SDS011;6714;53.056;8.690;2024-01-06T14:13:37;13.83;;;10.47;;
13291;SDS011;6714;53.056;8.690;2024-01-06T14:16:20;17.20;;;12.57;;
13291;SDS011;6714;53.056;8.690;2024-01-06T14:19:02;14.57;;;10.77;;
13291;SDS011;6714;53.056;8.690;2024-01-06T14:21:46;15.70;;;11.60;;
13291;SDS011;6714;53.056;8.690;2024-01-06T14:24:28;19.20;;;13.90;;
13291;SDS011;6714;53.056;8.690;2024-01-06T14:27:11;14.93;;;12.07;;
13291;SDS011;6714;53.056;8.690;2024-01-06T14:29:54;17.70;;;13.87;;
13291;SDS011;6714;53.056;8.690;2024-01-06T14:32:37;17.30;;;12.07;;
13291;SDS011;6714;53.056;8.690;2024-01-06T14:35:21;15.80;;;12.30;;
13291;SDS011;6714;53.056;8.690;2024-01-06T14:38:05;16.53;;;12.53;;
13291;SDS011;6714;53.056;8.690;2024-01-06T14:40:47;13.20;;;9.80;;
13291;SDS011;6714;53.056;8.690;2024-01-06T14:43:30;17.83;;;13.90;;
13291;SDS011;6714;53.056;8.690;2024-01-06T14:46:12;14.50;;;11.70;;
13291;SDS011;6714;53.056;8.690;2024-01-06T14:48:57;14.77;;;11.07;;
13291;SDS011;6714;53.056;8.690;2024-01-06T14:51:39;14.03;;;10.80;;
13291;SDS011;6714;53.056;8.690;2024-01-06T14:54:24;15.57;;;11.83;;
13291;SDS011;6714;53.056;8.690;2024-01-06T14:57:11;17.27;;;13.07;;
13291;SDS011;6714;53.056;8.690;2024-01-06T14:59:53;13.70;;;10.43;;
13291;SDS011;6714;53.056;8.690;2024-01-06T15:02:36;15.93;;;12.03;;
13291;SDS011;6714;53.056;8.690;2024-01-06T15:05:19;18.77;;;12.63;;
13291;SDS011;6714;53.056;8.690;2024-01-06T15:08:02;12.60;;;9.90;;
13291;SDS011;6714;53.056;8.690;2024-01-06T15:10:46;15.13;;;11.27;;
13291;SDS011;6714;53.056;8.690;2024-01-06T15:13:28;13.53;;;10.80;;
13291;SDS011;6714;53.056;8.690;2024-01-06T15:16:11;13.73;;;10.03;;
13291;SDS011;6714;53.056;8.690;2024-01-06T15:18:55;12.83;;;10.43;;
13291;SDS011;6714;53.056;8.690;2024-01-06T15:21:39;17.23;;;13.00;;
13291;SDS011;6714;53.056;8.690;2024-01-06T15:24:22;13.00;;;10.10;;
13291;SDS011;6714;53.056;8.690;2024-01-06T15:27:06;15.83;;;12.33;;
13291;SDS011;6714;53.056;8.690;2024-01-06T15:29:49;16.47;;;11.93;;
13291;SDS011;6714;53.056;8.690;2024-01-06T15:32:32;14.87;;;11.80;;
13291;SDS011;6714;53.056;8.690;2024-01-06T15:35:14;11.67;;;8.70;;
13291;SDS011;6714;53.056;8.690;2024-01-06T15:37:57;15.03;;;11.27;;
13291;SDS011;6714;53.056;8.690;2024-01-06T15:40:39;14.63;;;11.50;;
13291;SDS011;6714;53.056;8.690;2024-01-06T15:43:24;14.40;;;11.57;;
13291;SDS011;6714;53.056;8.690;2024-01-06T15:46:07;14.50;;;10.77;;
13291;SDS011;6714;53.056;8.690;2024-01-06T15:48:49;14.43;;;10.60;;
13291;SDS011;6714;53.056;8.690;2024-01-06T15:51:32;14.40;;;11.17;;
13291;SDS011;6714;53.056;8.690;2024-01-06T15:54:14;15.23;;;11.67;;
13291;SDS011;6714;53.056;8.690;2024-01-06T15:56:56;15.73;;;11.43;;
13291;SDS011;6714;53.056;8.690;2024-01-06T15:59:40;14.57;;;10.67;;
13291;SDS011;6714;53.056;8.690;2024-01-06T16:02:23;13.00;;;10.03;;
13291;SDS011;6714;53.056;8.690;2024-01-06T16:05:05;11.50;;;9.20;;
13291;SDS011;6714;53.056;8.690;2024-01-06T16:07:48;13.07;;;10.40;;
13291;SDS011;6714;53.056;8.690;2024-01-06T16:10:30;13.03;;;10.23;;
13291;SDS011;6714;53.056;8.690;2024-01-06T16:13:13;16.30;;;12.17;;
13291;SDS011;6714;53.056;8.690;2024-01-06T16:15:57;13.93;;;10.57;;
13291;SDS011;6714;53.056;8.690;2024-01-06T16:18:39;13.57;;;10.17;;
13291;SDS011;6714;53.056;8.690;2024-01-06T16:21:22;14.73;;;10.33;;
13291;SDS011;6714;53.056;8.690;2024-01-06T16:24:05;15.93;;;12.20;;
13291;SDS011;6714;53.056;8.690;2024-01-06T16:26:47;16.10;;;11.10;;